Time;durP1;ratioP1;P1;durP2;ratioP2;P2;SDS_P1;SDS_P2;PMS_P1;PMS_P2;Temp;Humidity;BMP_temperature;BMP_pressure;BME280_temperature;BME280_humidity;BME280_pressure;Samples;Min_cycle;Max_cycle;Signal;HPM_P1;HPM_P2
2023/10/30 00:00:08;;;;;;;7.10;1.20;;;10.20;99.90;;;;;;5034424;28;20080;-53
2023/10/30 00:02:37;;;;;;;4.57;1.30;;;10.10;99.90;;;;;;5050133;28;20045;-57
2023/10/30 00:05:04;;;;;;;4.68;1.20;;;10.10;99.90;;;;;;5051962;28;20559;-53
2023/10/30 00:07:30;;;;;;;10.43;2.35;;;10.00;99.90;;;;;;5052154;28;20495;-52
2023/10/30 00:09:55;;;;;;;4.53;1.45;;;10.10;99.90;;;;;;5052385;28;20036;-56
2023/10/30 00:12:21;;;;;;;5.35;1.77;;;10.00;99.90;;;;;;5052156;28;20488;-54
2023/10/30 00:14:47;;;;;;;7.50;1.80;;;10.00;99.90;;;;;;5051959;28;20088;-53
2023/10/30 00:17:13;;;;;;;4.53;1.30;;;10.10;99.90;;;;;;5051826;28;20033;-55
2023/10/30 00:19:38;;;;;;;7.13;1.48;;;9.90;99.90;;;;;;5052637;28;20033;-56
2023/10/30 00:22:04;;;;;;;7.95;1.40;;;9.90;99.90;;;;;;5050572;28;20041;-52
2023/10/30 00:24:32;;;;;;;6.50;2.03;;;10.00;99.90;;;;;;5050775;28;20072;-54
2023/10/30 00:26:58;;;;;;;7.82;1.23;;;10.00;99.90;;;;;;5052026;28;20124;-53
2023/10/30 00:29:24;;;;;;;8.30;2.05;;;10.10;99.90;;;;;;5051756;28;20099;-53
2023/10/30 00:31:50;;;;;;;5.63;1.58;;;9.90;99.90;;;;;;5049973;28;20044;-54
2023/10/30 00:34:16;;;;;;;7.85;1.58;;;10.00;99.90;;;;;;5051491;28;20476;-55
2023/10/30 00:36:41;;;;;;;6.93;1.40;;;10.00;99.90;;;;;;5051651;28;20045;-53
2023/10/30 00:39:07;;;;;;;4.28;1.23;;;9.90;99.90;;;;;;5017299;28;20044;-57
2023/10/30 00:41:33;;;;;;;7.93;1.75;;;10.00;99.90;;;;;;5051118;28;20119;-55
2023/10/30 00:43:58;;;;;;;6.20;1.95;;;9.90;99.90;;;;;;5050556;28;20437;-54
2023/10/30 00:46:24;;;;;;;3.10;1.30;;;9.80;99.90;;;;;;5049672;28;20044;-52
2023/10/30 00:48:50;;;;;;;5.40;1.60;;;9.80;99.90;;;;;;5050251;28;20186;-53
2023/10/30 00:51:15;;;;;;;4.03;1.13;;;9.80;99.90;;;;;;5050557;28;20061;-55
2023/10/30 00:53:42;;;;;;;5.72;1.55;;;9.80;99.90;;;;;;5049810;28;20373;-54
2023/10/30 00:56:08;;;;;;;6.18;1.52;;;9.80;99.90;;;;;;5051428;28;20044;-54
2023/10/30 00:58:34;;;;;;;6.00;1.60;;;9.70;99.90;;;;;;5033132;28;20041;-56
2023/10/30 01:01:00;;;;;;;6.22;1.98;;;9.70;99.90;;;;;;5033141;28;20120;-56
2023/10/30 01:03:26;;;;;;;5.50;1.30;;;9.80;99.90;;;;;;5050795;28;20036;-50
2023/10/30 01:05:59;;;;;;;7.10;1.48;;;9.70;99.90;;;;;;5051572;28;20051;-55
2023/10/30 01:08:26;;;;;;;5.18;1.65;;;9.60;99.90;;;;;;5051438;28;20122;-55
2023/10/30 01:10:52;;;;;;;8.15;1.60;;;9.60;99.90;;;;;;5033423;28;20071;-54
2023/10/30 01:13:18;;;;;;;7.72;1.50;;;9.60;99.90;;;;;;5033231;28;20049;-56
2023/10/30 01:15:44;;;;;;;7.63;1.60;;;9.60;99.90;;;;;;5050329;28;20037;-55
2023/10/30 01:18:09;;;;;;;6.97;1.52;;;9.60;99.90;;;;;;5050122;28;20063;-54
2023/10/30 01:20:39;;;;;;;8.00;1.70;;;9.50;99.90;;;;;;5051159;28;20051;-54
2023/10/30 01:23:05;;;;;;;6.68;1.60;;;9.50;99.90;;;;;;5051085;28;20033;-54
2023/10/30 01:25:30;;;;;;;8.05;2.22;;;9.30;99.90;;;;;;5050866;28;20082;-52
2023/10/30 01:27:56;;;;;;;6.70;2.10;;;9.50;99.90;;;;;;5051274;28;20115;-54
2023/10/30 01:30:22;;;;;;;7.22;1.67;;;9.50;99.90;;;;;;5050897;28;20087;-56
2023/10/30 01:32:48;;;;;;;9.18;1.48;;;9.30;99.90;;;;;;5048290;28;20048;-53
2023/10/30 01:35:13;;;;;;;7.75;2.10;;;9.40;99.90;;;;;;5050666;28;20033;-56
2023/10/30 01:37:39;;;;;;;5.70;1.63;;;9.20;99.90;;;;;;5050396;28;20080;-56
2023/10/30 01:40:06;;;;;;;4.72;1.40;;;9.20;99.90;;;;;;5050706;28;20040;-56
2023/10/30 01:42:32;;;;;;;11.70;2.30;;;9.30;99.90;;;;;;5051017;28;20090;-56
2023/10/30 01:44:58;;;;;;;6.80;1.50;;;9.20;99.90;;;;;;5050812;28;20045;-56
2023/10/30 01:47:25;;;;;;;6.85;1.73;;;9.10;99.90;;;;;;5050600;28;20037;-54
2023/10/30 01:49:52;;;;;;;11.63;1.63;;;9.20;99.90;;;;;;5051029;28;20079;-54
2023/10/30 01:52:20;;;;;;;9.77;2.38;;;9.40;99.90;;;;;;5049571;28;20053;-53
2023/10/30 01:54:55;;;;;;;7.28;1.50;;;9.30;99.90;;;;;;5049366;28;20036;-51
2023/10/30 01:57:24;;;;;;;13.50;1.77;;;9.40;99.90;;;;;;5050398;28;20040;-53
2023/10/30 01:59:51;;;;;;;6.68;1.50;;;9.30;99.90;;;;;;5050877;28;20045;-54
2023/10/30 02:02:19;;;;;;;7.30;1.60;;;9.30;99.90;;;;;;5032059;28;20044;-50
2023/10/30 02:04:45;;;;;;;6.47;2.25;;;9.60;99.90;;;;;;5049535;28;20040;-56
2023/10/30 02:07:11;;;;;;;6.55;1.50;;;9.50;99.90;;;;;;5032108;28;20052;-50
2023/10/30 02:09:38;;;;;;;7.47;1.52;;;9.30;99.90;;;;;;5032154;28;20196;-54
2023/10/30 02:12:04;;;;;;;8.77;2.40;;;9.50;99.90;;;;;;5049872;28;20033;-55
2023/10/30 02:14:29;;;;;;;5.28;1.67;;;9.30;99.90;;;;;;5052100;28;20037;-56
2023/10/30 02:16:55;;;;;;;11.52;1.83;;;9.50;99.90;;;;;;5050785;28;20048;-54
2023/10/30 02:19:24;;;;;;;5.90;1.30;;;9.50;99.90;;;;;;5054453;28;20121;-54
2023/10/30 02:21:55;;;;;;;12.45;1.83;;;9.30;99.90;;;;;;5053411;28;20080;-54
2023/10/30 02:24:22;;;;;;;10.20;1.85;;;9.40;99.90;;;;;;5052944;28;20063;-50
2023/10/30 02:26:48;;;;;;;12.45;1.60;;;9.50;99.90;;;;;;5053231;28;20044;-54
2023/10/30 02:29:14;;;;;;;9.02;2.30;;;9.40;99.90;;;;;;5054176;28;20041;-54
2023/10/30 02:31:41;;;;;;;12.20;1.40;;;9.70;99.90;;;;;;5053911;28;20044;-50
2023/10/30 02:34:10;;;;;;;8.13;1.35;;;9.80;99.90;;;;;;5036830;28;20505;-56
2023/10/30 02:36:35;;;;;;;8.85;1.60;;;9.50;99.90;;;;;;5036693;28;20052;-55
2023/10/30 02:39:04;;;;;;;11.52;1.63;;;9.50;99.90;;;;;;5053446;28;20476;-57
2023/10/30 02:41:31;;;;;;;9.82;1.58;;;9.70;99.90;;;;;;5035317;28;20072;-54
2023/10/30 02:44:00;;;;;;;9.55;1.63;;;9.50;99.90;;;;;;5053408;28;20459;-52
2023/10/30 02:46:26;;;;;;;12.70;1.88;;;9.60;99.90;;;;;;5053167;28;20040;-54
2023/10/30 02:48:52;;;;;;;9.43;1.40;;;9.60;99.90;;;;;;5053133;28;20091;-54
2023/10/30 02:51:18;;;;;;;12.55;2.72;;;9.50;99.90;;;;;;5053704;28;20044;-57
2023/10/30 02:53:44;;;;;;;9.38;1.80;;;9.60;99.90;;;;;;5052730;28;20550;-54
2023/10/30 02:56:10;;;;;;;12.55;1.85;;;9.60;99.90;;;;;;5052559;28;20043;-54
2023/10/30 02:58:36;;;;;;;11.88;2.00;;;9.60;99.90;;;;;;5053873;28;20476;-54
2023/10/30 03:01:02;;;;;;;8.88;1.65;;;9.50;99.90;;;;;;5052263;28;20041;-53
2023/10/30 03:03:28;;;;;;;9.88;1.60;;;9.50;99.90;;;;;;5050935;28;20072;-54
2023/10/30 03:05:55;;;;;;;9.32;1.50;;;9.50;99.90;;;;;;5052722;28;20108;-51
2023/10/30 03:08:20;;;;;;;8.95;1.85;;;9.50;99.90;;;;;;5053365;28;20037;-54
2023/10/30 03:10:49;;;;;;;10.48;2.22;;;9.60;99.90;;;;;;5035847;28;20045;-55
2023/10/30 03:13:15;;;;;;;11.48;1.50;;;9.50;99.90;;;;;;5053396;28;20086;-53
2023/10/30 03:15:46;;;;;;;12.60;1.67;;;9.70;99.90;;;;;;5051610;28;20033;-53
2023/10/30 03:18:13;;;;;;;7.60;1.42;;;9.60;99.90;;;;;;5051634;28;20120;-54
2023/10/30 03:20:39;;;;;;;10.50;1.50;;;9.50;99.90;;;;;;5052673;28;20041;-56
2023/10/30 03:23:05;;;;;;;8.75;1.80;;;9.60;99.90;;;;;;5034190;28;20094;-53
2023/10/30 03:25:30;;;;;;;11.77;2.40;;;9.50;99.90;;;;;;5034598;28;20392;-52
2023/10/30 03:27:56;;;;;;;9.50;2.47;;;9.70;99.90;;;;;;5052705;28;20044;-56
2023/10/30 03:30:22;;;;;;;9.02;2.60;;;9.70;99.90;;;;;;5053051;28;20048;-55
2023/10/30 03:32:47;;;;;;;9.80;1.60;;;9.80;99.90;;;;;;5034393;28;20091;-56
2023/10/30 03:35:13;;;;;;;10.23;1.50;;;9.70;99.90;;;;;;5052941;28;20037;-54
2023/10/30 03:37:39;;;;;;;9.35;1.73;;;9.70;99.90;;;;;;5052722;28;20116;-56
2023/10/30 03:40:05;;;;;;;9.75;1.92;;;9.50;99.90;;;;;;5052648;28;20230;-56
2023/10/30 03:42:30;;;;;;;13.88;1.63;;;9.70;99.90;;;;;;5034597;28;20053;-51
2023/10/30 03:44:56;;;;;;;10.75;1.60;;;9.60;99.90;;;;;;5052630;28;20504;-55
2023/10/30 03:47:22;;;;;;;13.13;2.97;;;9.60;99.90;;;;;;5033460;28;20045;-56
2023/10/30 03:49:47;;;;;;;9.40;1.70;;;9.70;99.90;;;;;;5052502;28;20079;-54
2023/10/30 03:52:13;;;;;;;9.80;1.60;;;9.60;99.90;;;;;;5033503;28;20049;-54
2023/10/30 03:54:39;;;;;;;10.40;1.75;;;9.70;99.90;;;;;;5052160;28;20025;-55
2023/10/30 03:57:08;;;;;;;7.90;1.38;;;9.70;99.90;;;;;;5034847;28;20042;-54
2023/10/30 03:59:34;;;;;;;10.75;1.45;;;9.50;99.90;;;;;;5052803;28;20582;-53
2023/10/30 04:02:00;;;;;;;8.93;1.35;;;9.70;99.90;;;;;;5052442;28;20115;-53
2023/10/30 04:04:25;;;;;;;10.18;2.22;;;9.50;99.90;;;;;;5034775;28;20045;-52
2023/10/30 04:06:51;;;;;;;6.90;1.30;;;9.70;99.90;;;;;;5052324;28;20041;-53
2023/10/30 04:09:16;;;;;;;10.38;1.73;;;9.70;99.90;;;;;;5034719;28;20504;-52
2023/10/30 04:11:46;;;;;;;12.15;2.95;;;9.60;99.90;;;;;;5034386;28;20037;-52
2023/10/30 04:14:12;;;;;;;14.75;3.10;;;9.60;99.90;;;;;;5052643;28;20096;-54
2023/10/30 04:16:37;;;;;;;8.52;1.50;;;9.50;99.90;;;;;;5033603;28;20167;-53
2023/10/30 04:19:03;;;;;;;11.93;2.13;;;9.70;99.90;;;;;;5051569;28;20396;-52
2023/10/30 04:21:29;;;;;;;10.35;1.45;;;9.40;99.90;;;;;;5051917;28;20044;-57
2023/10/30 04:23:55;;;;;;;8.68;2.45;;;9.60;99.90;;;;;;5051830;28;20033;-55
2023/10/30 04:26:20;;;;;;;8.60;1.45;;;9.60;99.90;;;;;;5052200;28;20399;-56
2023/10/30 04:28:46;;;;;;;13.45;1.67;;;9.40;99.90;;;;;;5052159;28;20044;-53
2023/10/30 04:31:12;;;;;;;10.57;1.60;;;9.40;99.90;;;;;;5049659;28;20029;-57
2023/10/30 04:33:38;;;;;;;11.63;2.53;;;9.50;99.90;;;;;;5050209;28;20427;-56
2023/10/30 04:36:04;;;;;;;13.80;2.55;;;9.60;99.90;;;;;;5051711;28;20503;-54
2023/10/30 04:38:31;;;;;;;20.63;1.88;;;9.60;99.90;;;;;;5051983;28;20516;-52
2023/10/30 04:40:57;;;;;;;9.43;1.60;;;9.60;99.90;;;;;;5051990;28;20037;-55
2023/10/30 04:43:23;;;;;;;14.07;2.42;;;9.30;99.90;;;;;;5051427;28;20039;-58
2023/10/30 04:45:49;;;;;;;10.73;1.60;;;9.30;99.90;;;;;;5051887;28;20029;-51
2023/10/30 04:48:14;;;;;;;8.95;1.65;;;9.50;99.90;;;;;;5050392;28;20045;-54
2023/10/30 04:50:40;;;;;;;10.70;1.90;;;9.50;99.90;;;;;;5050293;28;20037;-52
2023/10/30 04:53:06;;;;;;;11.00;3.08;;;9.40;99.90;;;;;;5033469;28;20044;-53
2023/10/30 04:55:32;;;;;;;12.52;2.60;;;9.30;99.90;;;;;;5051551;28;20492;-56
2023/10/30 04:57:57;;;;;;;10.20;2.70;;;9.30;99.90;;;;;;5033567;28;20545;-56
2023/10/30 05:00:23;;;;;;;7.45;1.48;;;9.40;99.90;;;;;;5051745;28;20090;-55
2023/10/30 05:02:50;;;;;;;12.13;1.75;;;9.50;99.90;;;;;;5051412;28;20041;-51
2023/10/30 05:05:15;;;;;;;6.38;1.50;;;9.50;99.90;;;;;;5051576;28;20156;-52
2023/10/30 05:07:44;;;;;;;11.02;1.63;;;9.30;99.90;;;;;;5050959;28;20035;-56
2023/10/30 05:10:09;;;;;;;10.13;1.65;;;9.50;99.90;;;;;;5050925;28;20102;-50
2023/10/30 05:12:35;;;;;;;17.23;3.10;;;9.50;99.90;;;;;;5051175;28;20037;-57
2023/10/30 05:15:01;;;;;;;8.60;1.60;;;9.30;99.90;;;;;;5051424;28;20049;-55
2023/10/30 05:17:27;;;;;;;11.43;2.10;;;9.30;99.90;;;;;;5048763;28;20047;-55
2023/10/30 05:19:53;;;;;;;12.40;1.60;;;9.30;99.90;;;;;;5051137;28;20538;-53
2023/10/30 05:22:18;;;;;;;8.20;2.30;;;9.20;99.90;;;;;;5051232;28;20036;-52
2023/10/30 05:24:44;;;;;;;11.38;1.98;;;10.20;99.90;;;;;;5051294;28;20044;-54
2023/10/30 05:27:10;;;;;;;12.00;2.15;;;9.50;99.90;;;;;;5051392;28;20148;-53
2023/10/30 05:29:35;;;;;;;11.30;2.60;;;9.50;99.90;;;;;;5050317;28;20473;-54
2023/10/30 05:32:06;;;;;;;14.70;1.80;;;9.40;99.90;;;;;;5050711;28;20052;-53
2023/10/30 05:34:32;;;;;;;12.68;2.28;;;9.30;99.90;;;;;;5033028;28;20040;-55
2023/10/30 05:36:58;;;;;;;15.10;1.77;;;9.30;99.90;;;;;;5051075;28;20132;-53
2023/10/30 05:39:24;;;;;;;13.30;2.33;;;9.50;99.90;;;;;;5051013;28;20061;-56
2023/10/30 05:41:50;;;;;;;14.05;1.70;;;9.50;99.90;;;;;;5050735;28;20124;-53
2023/10/30 05:44:17;;;;;;;16.13;3.35;;;9.20;99.90;;;;;;5033163;28;20120;-51
2023/10/30 05:46:43;;;;;;;14.40;2.03;;;9.50;99.90;;;;;;5050989;28;20071;-54
2023/10/30 05:49:08;;;;;;;12.80;1.60;;;9.50;99.90;;;;;;5049593;28;20037;-52
2023/10/30 05:51:34;;;;;;;14.95;1.67;;;9.40;99.90;;;;;;5050553;28;20045;-53
2023/10/30 05:54:00;;;;;;;12.07;1.60;;;9.30;99.90;;;;;;5048818;28;20489;-53
2023/10/30 05:56:25;;;;;;;15.32;1.73;;;9.50;99.90;;;;;;5050317;28;20033;-56
2023/10/30 05:58:51;;;;;;;11.50;2.20;;;9.50;99.90;;;;;;5049992;28;20132;-55
2023/10/30 06:01:16;;;;;;;8.70;2.25;;;9.20;99.90;;;;;;5045779;28;20511;-52
2023/10/30 06:03:42;;;;;;;13.77;2.08;;;9.20;99.90;;;;;;5050468;28;20400;-55
2023/10/30 06:06:08;;;;;;;11.82;1.77;;;9.20;99.90;;;;;;5016148;28;20041;-54
2023/10/30 06:08:34;;;;;;;12.05;1.70;;;9.50;99.90;;;;;;5050742;28;20040;-57
2023/10/30 06:11:00;;;;;;;16.52;3.47;;;9.50;99.90;;;;;;5050389;28;20325;-56
2023/10/30 06:13:25;;;;;;;10.70;1.58;;;9.40;99.90;;;;;;5050431;28;20033;-54
2023/10/30 06:15:54;;;;;;;11.93;3.10;;;9.60;99.90;;;;;;5050630;28;20087;-53
2023/10/30 06:18:21;;;;;;;11.55;2.30;;;9.50;99.90;;;;;;5031909;28;20045;-55
2023/10/30 06:20:46;;;;;;;15.60;2.58;;;9.40;99.90;;;;;;5050062;28;20049;-56
2023/10/30 06:23:12;;;;;;;9.20;1.50;;;9.40;99.90;;;;;;5049479;28;20033;-54
2023/10/30 06:25:38;;;;;;;17.33;3.20;;;9.60;99.90;;;;;;5050174;28;20435;-55
2023/10/30 06:28:04;;;;;;;10.25;1.60;;;9.60;99.90;;;;;;5050455;28;20041;-54
2023/10/30 06:30:29;;;;;;;12.02;1.70;;;9.30;99.90;;;;;;5032686;28;20080;-54
2023/10/30 06:32:55;;;;;;;11.35;2.83;;;9.30;99.90;;;;;;5050280;28;20033;-54
2023/10/30 06:35:21;;;;;;;15.07;1.85;;;9.60;99.90;;;;;;5050473;28;20068;-54
2023/10/30 06:37:46;;;;;;;16.38;3.08;;;9.50;99.90;;;;;;5050364;28;20041;-55
2023/10/30 06:40:12;;;;;;;27.20;2.33;;;9.40;99.90;;;;;;5032494;28;20044;-54
2023/10/30 06:42:38;;;;;;;13.60;2.83;;;9.40;99.90;;;;;;5032453;28;20040;-53
2023/10/30 06:45:04;;;;;;;14.07;4.13;;;9.40;99.90;;;;;;5049018;28;20056;-54
2023/10/30 06:47:30;;;;;;;12.50;2.83;;;9.50;99.90;;;;;;5047895;28;20549;-54
2023/10/30 06:49:56;;;;;;;6.03;1.55;;;9.80;99.90;;;;;;5015749;28;20132;-54
2023/10/30 06:52:22;;;;;;;13.48;2.00;;;9.70;99.90;;;;;;5049868;28;20049;-53
2023/10/30 06:54:48;;;;;;;15.55;3.80;;;9.50;99.90;;;;;;5049864;28;20640;-51
2023/10/30 06:57:13;;;;;;;8.55;1.67;;;9.60;99.90;;;;;;5050426;28;20029;-51
2023/10/30 06:59:39;;;;;;;16.52;3.60;;;9.70;99.90;;;;;;5049607;28;20068;-54
2023/10/30 07:02:05;;;;;;;19.88;2.33;;;9.40;99.90;;;;;;5051825;28;20040;-54
2023/10/30 07:04:31;;;;;;;15.43;2.13;;;9.80;99.90;;;;;;5053621;28;20040;-52
2023/10/30 07:06:56;;;;;;;14.10;2.10;;;9.40;99.90;;;;;;5053449;28;20491;-54
2023/10/30 07:09:22;;;;;;;17.30;1.65;;;9.70;99.90;;;;;;5052905;28;20384;-52
2023/10/30 07:11:48;;;;;;;12.00;2.05;;;9.70;99.90;;;;;;5053595;28;20029;-56
2023/10/30 07:14:13;;;;;;;9.90;1.60;;;9.50;99.90;;;;;;5052640;28;20503;-57
2023/10/30 07:16:40;;;;;;;13.77;2.08;;;9.40;99.90;;;;;;5052765;28;20032;-56
2023/10/30 07:19:06;;;;;;;17.75;1.85;;;9.80;99.90;;;;;;5052975;28;20388;-51
2023/10/30 07:21:31;;;;;;;12.63;2.08;;;9.90;99.90;;;;;;5052140;28;20041;-56
2023/10/30 07:23:57;;;;;;;14.32;2.22;;;9.90;99.90;;;;;;5050845;28;20040;-52
2023/10/30 07:26:24;;;;;;;12.50;2.10;;;9.90;99.90;;;;;;5053665;28;20044;-54
2023/10/30 07:28:50;;;;;;;10.35;2.15;;;10.00;99.90;;;;;;5052336;28;20037;-57
2023/10/30 07:31:19;;;;;;;14.32;2.45;;;9.60;99.90;;;;;;5051190;28;20032;-55
2023/10/30 07:33:45;;;;;;;15.18;2.80;;;9.80;99.90;;;;;;5034528;28;20138;-53
2023/10/30 07:36:11;;;;;;;13.60;3.22;;;9.90;99.90;;;;;;5052715;28;20035;-54
2023/10/30 07:38:37;;;;;;;15.73;2.30;;;9.80;99.90;;;;;;5032426;28;20044;-53
2023/10/30 07:41:03;;;;;;;13.82;3.53;;;10.20;99.90;;;;;;5052817;28;20447;-51
2023/10/30 07:43:30;;;;;;;16.63;3.90;;;10.20;99.90;;;;;;5053002;28;20044;-51
2023/10/30 07:45:57;;;;;;;14.68;3.08;;;9.90;99.90;;;;;;5053053;28;20032;-54
2023/10/30 07:48:23;;;;;;;12.88;2.83;;;10.00;99.90;;;;;;5052737;28;20033;-51
2023/10/30 07:50:50;;;;;;;12.85;2.17;;;10.20;99.90;;;;;;5051905;28;20052;-56
2023/10/30 07:53:16;;;;;;;11.43;2.00;;;10.40;99.90;;;;;;5034340;28;20049;-53
2023/10/30 07:55:41;;;;;;;15.52;1.98;;;10.30;99.90;;;;;;5034672;28;20037;-52
2023/10/30 07:58:07;;;;;;;14.15;3.58;;;10.10;99.90;;;;;;5052792;28;20100;-52
2023/10/30 08:00:33;;;;;;;17.33;2.42;;;10.50;99.90;;;;;;5052648;28;20603;-55
2023/10/30 08:03:00;;;;;;;13.77;2.60;;;10.60;99.90;;;;;;5042499;28;20089;-52
2023/10/30 08:05:26;;;;;;;13.40;2.63;;;10.60;99.90;;;;;;5050346;28;20044;-54
2023/10/30 08:07:52;;;;;;;14.98;3.50;;;10.70;99.90;;;;;;5032869;28;20187;-54
2023/10/30 08:10:18;;;;;;;12.38;1.70;;;10.40;99.90;;;;;;5047713;28;20131;-53
2023/10/30 08:12:43;;;;;;;9.60;3.40;;;10.40;99.90;;;;;;5032647;28;20045;-51
2023/10/30 08:15:09;;;;;;;10.35;2.22;;;10.80;99.90;;;;;;5050957;28;20043;-53
2023/10/30 08:17:36;;;;;;;10.38;1.60;;;10.50;99.90;;;;;;5047425;28;20079;-56
2023/10/30 08:20:03;;;;;;;12.35;2.05;;;10.70;99.90;;;;;;5051020;28;20048;-50
2023/10/30 08:22:29;;;;;;;15.32;2.45;;;10.80;99.90;;;;;;5050114;28;20045;-53
2023/10/30 08:24:55;;;;;;;17.13;3.47;;;10.80;99.90;;;;;;5044895;28;20049;-56
2023/10/30 08:27:21;;;;;;;12.85;2.05;;;10.70;99.90;;;;;;5050590;28;20110;-53
2023/10/30 08:29:47;;;;;;;11.75;2.72;;;11.20;99.90;;;;;;5032859;28;20037;-54
2023/10/30 08:32:13;;;;;;;15.38;2.40;;;10.90;99.90;;;;;;5032160;28;20481;-56
2023/10/30 08:34:39;;;;;;;12.45;2.53;;;10.90;99.90;;;;;;5051014;28;20373;-54
2023/10/30 08:37:05;;;;;;;14.15;3.03;;;11.30;99.90;;;;;;5050464;28;20052;-53
2023/10/30 08:39:30;;;;;;;12.52;2.10;;;11.40;99.90;;;;;;5049799;28;20045;-52
2023/10/30 08:41:56;;;;;;;18.55;2.22;;;11.30;99.90;;;;;;5050282;28;20045;-54
2023/10/30 08:44:22;;;;;;;10.43;2.00;;;11.40;99.90;;;;;;5049528;28;20041;-56
2023/10/30 08:46:47;;;;;;;13.27;2.25;;;11.40;99.90;;;;;;5048744;28;20479;-57
2023/10/30 08:49:14;;;;;;;10.77;1.70;;;11.50;99.90;;;;;;5049988;28;20086;-56
2023/10/30 08:51:43;;;;;;;12.93;2.33;;;11.80;99.90;;;;;;5049493;28;20048;-56
2023/10/30 08:54:09;;;;;;;11.23;1.90;;;11.70;99.90;;;;;;5049185;28;20053;-55
2023/10/30 08:56:36;;;;;;;17.23;2.55;;;11.80;99.90;;;;;;5049978;28;20031;-56
2023/10/30 08:59:05;;;;;;;14.55;3.00;;;11.90;99.90;;;;;;5049998;28;20492;-56
2023/10/30 09:01:31;;;;;;;10.63;2.30;;;12.00;99.90;;;;;;5047751;28;20488;-54
2023/10/30 09:03:57;;;;;;;10.93;2.20;;;12.20;99.90;;;;;;5049623;28;20045;-56
2023/10/30 09:06:23;;;;;;;12.55;2.22;;;12.30;99.90;;;;;;5049661;28;20045;-57
2023/10/30 09:08:49;;;;;;;11.18;2.10;;;12.50;99.90;;;;;;5030888;28;20052;-52
2023/10/30 09:11:16;;;;;;;15.40;2.85;;;12.50;99.90;;;;;;5049648;28;20041;-58
2023/10/30 09:13:41;;;;;;;10.38;2.05;;;12.60;99.90;;;;;;5048596;28;20415;-54
2023/10/30 09:16:08;;;;;;;10.10;2.10;;;12.60;99.90;;;;;;5049019;28;20120;-55
2023/10/30 09:18:35;;;;;;;11.73;2.10;;;12.70;99.90;;;;;;5049889;28;20029;-56
2023/10/30 09:21:01;;;;;;;12.88;2.03;;;12.80;99.90;;;;;;5048249;28;20040;-50
2023/10/30 09:23:26;;;;;;;17.75;2.00;;;12.90;99.90;;;;;;5047480;28;20484;-57
2023/10/30 09:25:52;;;;;;;12.82;2.13;;;12.90;99.90;;;;;;5031112;28;20045;-57
2023/10/30 09:28:18;;;;;;;13.45;2.28;;;12.70;99.90;;;;;;5048636;28;20049;-53
2023/10/30 09:30:44;;;;;;;13.63;2.25;;;12.80;99.90;;;;;;5048484;28;20044;-52
2023/10/30 09:33:10;;;;;;;11.63;2.28;;;12.70;99.90;;;;;;5031445;28;20115;-52
2023/10/30 09:35:37;;;;;;;14.48;2.55;;;12.60;99.90;;;;;;5049308;28;20373;-54
2023/10/30 09:38:04;;;;;;;10.52;2.15;;;12.50;99.90;;;;;;5048661;28;20044;-57
2023/10/30 09:40:30;;;;;;;9.98;2.35;;;12.50;99.90;;;;;;5030887;28;20048;-54
2023/10/30 09:42:56;;;;;;;13.60;2.50;;;12.30;99.90;;;;;;5048578;28;20456;-51
2023/10/30 09:45:23;;;;;;;12.52;2.35;;;12.30;99.90;;;;;;5048577;28;20139;-55
2023/10/30 09:47:56;;;;;;;13.68;1.92;;;12.20;99.90;;;;;;5049527;28;20464;-55
2023/10/30 09:50:26;;;;;;;12.05;2.90;;;12.10;99.90;;;;;;5047633;28;20139;-49
2023/10/30 09:52:52;;;;;;;17.00;2.90;;;12.10;99.90;;;;;;5048133;28;20049;-51
2023/10/30 09:55:19;;;;;;;15.82;2.58;;;12.00;99.90;;;;;;5048637;28;20127;-53
2023/10/30 09:57:49;;;;;;;12.50;2.25;;;12.20;99.90;;;;;;5049565;28;20040;-55
2023/10/30 10:00:15;;;;;;;16.92;2.20;;;12.10;99.90;;;;;;5047081;28;20040;-56
2023/10/30 10:02:41;;;;;;;13.15;2.15;;;12.00;99.90;;;;;;5048505;28;20041;-54
2023/10/30 10:05:13;;;;;;;13.32;2.42;;;12.10;99.90;;;;;;5048904;28;20048;-56
2023/10/30 10:07:40;;;;;;;11.77;2.42;;;12.30;99.90;;;;;;5047709;28;20094;-54
2023/10/30 10:10:08;;;;;;;11.70;2.45;;;12.40;99.90;;;;;;5046579;28;20040;-55
2023/10/30 10:12:36;;;;;;;11.55;2.10;;;12.60;99.90;;;;;;5044344;28;20527;-55
2023/10/30 10:15:06;;;;;;;16.27;2.38;;;12.50;99.90;;;;;;5043925;28;20033;-53
2023/10/30 10:17:42;;;;;;;14.60;2.88;;;12.80;99.90;;;;;;5027648;28;20041;-57
2023/10/30 10:20:10;;;;;;;11.38;2.10;;;12.60;99.90;;;;;;5046879;28;20476;-51
2023/10/30 10:22:37;;;;;;;14.88;2.75;;;12.80;99.90;;;;;;5044361;28;20400;-56
2023/10/30 10:25:03;;;;;;;11.35;2.40;;;12.70;99.90;;;;;;5050060;28;20037;-57
2023/10/30 10:27:29;;;;;;;15.90;2.85;;;12.80;99.90;;;;;;5032724;28;20102;-56
2023/10/30 10:29:56;;;;;;;15.05;3.00;;;12.70;99.90;;;;;;5050462;28;20025;-56
2023/10/30 10:32:26;;;;;;;12.05;2.38;;;12.90;99.90;;;;;;5050418;28;20025;-54
2023/10/30 10:35:07;;;;;;;12.38;2.88;;;12.80;99.90;;;;;;5017781;28;20365;-56
2023/10/30 10:37:33;;;;;;;11.45;2.20;;;13.00;99.90;;;;;;5052241;28;20047;-58
2023/10/30 10:40:00;;;;;;;13.57;2.40;;;13.10;99.90;;;;;;5053377;28;20045;-54
2023/10/30 10:42:30;;;;;;;13.32;2.08;;;13.10;99.90;;;;;;5054171;28;20048;-52
2023/10/30 10:44:57;;;;;;;11.55;2.40;;;13.00;99.90;;;;;;5053770;28;20033;-50
2023/10/30 10:47:23;;;;;;;11.30;2.83;;;13.10;99.90;;;;;;5054041;28;20075;-57
2023/10/30 10:49:50;;;;;;;10.68;2.60;;;12.90;99.90;;;;;;5054407;28;20098;-56
2023/10/30 10:52:19;;;;;;;12.70;2.17;;;13.00;99.90;;;;;;5036125;28;20147;-59
2023/10/30 10:55:03;;;;;;;13.40;3.13;;;13.10;99.90;;;;;;5054008;28;20469;-53
2023/10/30 10:57:34;;;;;;;16.95;2.47;;;13.40;99.90;;;;;;5054359;28;20412;-56
2023/10/30 11:00:06;;;;;;;14.07;3.10;;;13.40;99.90;;;;;;5054109;28;20069;-55
2023/10/30 11:02:37;;;;;;;12.68;2.97;;;13.20;99.90;;;;;;5053288;28;20036;-56
2023/10/30 11:05:05;;;;;;;11.38;2.75;;;13.40;99.90;;;;;;5051378;28;20045;-55
2023/10/30 11:07:52;;;;;;;9.05;2.00;;;13.40;99.90;;;;;;5050032;28;20370;-52
2023/10/30 11:10:29;;;;;;;10.20;2.47;;;13.30;99.90;;;;;;5053105;28;20120;-57
2023/10/30 11:13:27;;;;;;;11.15;2.50;;;13.20;99.90;;;;;;5052244;28;20037;-53
2023/10/30 11:16:00;;;;;;;13.45;2.55;;;13.20;99.90;;;;;;5018953;28;20076;-53
2023/10/30 11:18:27;;;;;;;15.43;2.78;;;13.00;99.90;;;;;;5052642;28;20045;-56
2023/10/30 11:21:28;;;;;;;14.57;1.95;;;13.10;99.90;;;;;;5051350;28;20098;-52
2023/10/30 11:23:56;;;;;;;14.95;2.15;;;13.00;99.90;;;;;;4950072;29;20204;-55
2023/10/30 11:26:38;;;;;;;10.70;2.33;;;13.20;99.90;;;;;;5033412;28;20045;-57
2023/10/30 11:29:12;;;;;;;12.52;2.20;;;13.30;99.90;;;;;;5050342;28;20135;-56
2023/10/30 11:31:54;;;;;;;9.00;2.47;;;13.30;99.90;;;;;;5051850;28;20041;-58
2023/10/30 11:34:30;;;;;;;14.88;2.47;;;13.30;99.90;;;;;;5051838;28;20464;-56
2023/10/30 11:37:04;;;;;;;8.80;1.85;;;13.50;99.90;;;;;;5033739;28;20037;-56
2023/10/30 11:39:35;;;;;;;13.15;2.58;;;13.50;99.90;;;;;;5033825;28;20412;-57
2023/10/30 11:42:00;;;;;;;12.75;2.40;;;13.50;99.90;;;;;;5051715;28;20036;-54
2023/10/30 11:44:30;;;;;;;11.27;2.75;;;13.60;99.90;;;;;;5051328;28;20606;-53
2023/10/30 11:46:56;;;;;;;14.80;2.00;;;13.50;99.90;;;;;;5049983;28;20041;-56
2023/10/30 11:49:29;;;;;;;12.35;2.10;;;13.40;99.90;;;;;;5045808;28;20036;-56
2023/10/30 11:51:56;;;;;;;11.32;2.38;;;13.50;99.90;;;;;;5049171;28;20061;-54
2023/10/30 11:54:32;;;;;;;10.23;1.77;;;13.60;99.90;;;;;;5048326;28;20037;-59
2023/10/30 11:57:02;;;;;;;11.57;2.90;;;13.60;99.90;;;;;;5044200;28;21161;-57
2023/10/30 11:59:29;;;;;;;9.23;1.55;;;13.60;99.90;;;;;;5046523;28;20041;-56
2023/10/30 12:01:58;;;;;;;15.88;2.45;;;13.60;99.90;;;;;;5048443;28;20037;-56
2023/10/30 12:04:26;;;;;;;9.55;2.38;;;13.60;99.90;;;;;;5049602;28;20037;-56
2023/10/30 12:06:52;;;;;;;15.93;2.70;;;13.60;99.90;;;;;;5048931;28;20041;-57
2023/10/30 12:09:18;;;;;;;11.65;1.98;;;13.60;99.90;;;;;;5049701;28;20072;-59
2023/10/30 12:11:44;;;;;;;13.02;2.78;;;13.60;99.90;;;;;;5048758;28;20044;-53
2023/10/30 12:14:15;;;;;;;13.27;2.67;;;13.70;99.90;;;;;;5048394;28;20044;-56
2023/10/30 12:16:51;;;;;;;10.32;2.20;;;13.70;99.90;;;;;;5044878;28;20065;-55
2023/10/30 12:19:23;;;;;;;11.88;1.85;;;13.70;99.90;;;;;;5045285;28;20392;-55
2023/10/30 12:21:51;;;;;;;15.45;2.47;;;13.70;99.90;;;;;;5048174;28;20042;-56
2023/10/30 12:24:22;;;;;;;10.73;2.30;;;13.60;99.90;;;;;;5051095;28;20102;-56
2023/10/30 12:26:48;;;;;;;10.55;2.10;;;13.70;99.90;;;;;;5050682;28;20084;-56
2023/10/30 12:29:21;;;;;;;14.02;2.00;;;13.70;99.90;;;;;;5048099;28;20265;-58
2023/10/30 12:31:59;;;;;;;13.65;2.10;;;13.70;99.90;;;;;;5049161;28;20084;-53
2023/10/30 12:34:25;;;;;;;11.23;2.60;;;13.60;99.90;;;;;;5031948;28;20089;-56
2023/10/30 12:36:50;;;;;;;7.45;1.60;;;13.70;99.90;;;;;;5046966;28;20036;-55
2023/10/30 12:39:21;;;;;;;15.73;2.70;;;13.80;99.90;;;;;;5025765;28;20135;-56
2023/10/30 12:41:53;;;;;;;15.00;2.78;;;13.70;99.90;;;;;;5031281;28;20107;-58
2023/10/30 12:44:19;;;;;;;13.60;1.98;;;13.80;99.90;;;;;;5050920;28;20041;-57